Time;durP1;ratioP1;P1;durP2;ratioP2;P2;SDS_P1;SDS_P2;PMS_P1;PMS_P2;Temp;Humidity;BMP_temperature;BMP_pressure;BME280_temperature;BME280_humidity;BME280_pressure;Samples;Min_cycle;Max_cycle;Signal;HPM_P1;HPM_P2
2021/10/18 00:01:08;;;;;;;20.73;14.10;;;8.90;84.00;;;;;;5014584;28;20029;-69
2021/10/18 00:03:34;;;;;;;19.63;13.13;;;8.90;84.10;;;;;;5006833;28;20117;-70
2021/10/18 00:06:00;;;;;;;18.70;13.80;;;8.80;84.20;;;;;;5007672;28;20076;-71
2021/10/18 00:08:25;;;;;;;16.42;13.15;;;8.90;84.30;;;;;;5011272;28;20034;-69
2021/10/18 00:10:51;;;;;;;17.75;14.00;;;8.80;84.40;;;;;;5009223;28;20096;-69
2021/10/18 00:13:17;;;;;;;18.85;14.57;;;8.80;84.40;;;;;;5011788;28;20429;-71
2021/10/18 00:15:42;;;;;;;18.63;14.18;;;8.80;84.50;;;;;;5010526;28;20036;-70
2021/10/18 00:18:08;;;;;;;18.48;14.13;;;8.70;84.50;;;;;;5009627;28;20363;-72
2021/10/18 00:20:34;;;;;;;16.15;13.60;;;8.70;84.60;;;;;;5004504;28;20370;-70
2021/10/18 00:23:00;;;;;;;17.10;13.70;;;8.60;84.70;;;;;;5011086;28;20038;-70
2021/10/18 00:25:25;;;;;;;18.95;14.23;;;8.60;84.70;;;;;;5006994;28;20036;-71
2021/10/18 00:27:51;;;;;;;21.02;13.82;;;8.60;84.60;;;;;;5013982;28;20033;-69
2021/10/18 00:30:17;;;;;;;19.17;14.40;;;8.50;84.50;;;;;;5012459;28;20129;-70
2021/10/18 00:32:43;;;;;;;19.30;14.48;;;8.50;84.50;;;;;;5009869;28;20121;-69
2021/10/18 00:35:09;;;;;;;19.52;13.10;;;8.40;84.50;;;;;;5009489;28;20492;-69
2021/10/18 00:37:35;;;;;;;18.55;14.10;;;8.40;84.80;;;;;;5012462;28;20050;-70
2021/10/18 00:40:01;;;;;;;19.25;13.68;;;8.30;84.90;;;;;;5008232;28;20084;-72
2021/10/18 00:42:26;;;;;;;20.45;14.93;;;8.20;84.90;;;;;;5022617;28;20111;-69
2021/10/18 00:44:52;;;;;;;19.98;15.10;;;8.20;85.00;;;;;;5007002;28;20432;-72
2021/10/18 00:47:20;;;;;;;20.23;14.10;;;8.10;85.20;;;;;;5009772;28;20113;-69
2021/10/18 00:49:47;;;;;;;20.27;14.40;;;8.10;85.30;;;;;;5014802;28;20083;-71
2021/10/18 00:52:15;;;;;;;20.30;15.50;;;8.00;85.50;;;;;;5007441;28;20041;-73
2021/10/18 00:54:41;;;;;;;20.73;15.82;;;8.00;85.70;;;;;;5011160;28;20026;-70
2021/10/18 00:57:07;;;;;;;20.48;15.80;;;8.00;85.80;;;;;;5013429;28;20424;-71
2021/10/18 00:59:35;;;;;;;20.20;15.00;;;8.00;85.90;;;;;;5020087;28;20042;-70
2021/10/18 01:02:01;;;;;;;19.92;15.55;;;7.90;86.10;;;;;;5015009;28;20080;-72
2021/10/18 01:04:27;;;;;;;21.75;15.65;;;7.90;86.20;;;;;;5009675;28;20481;-70
2021/10/18 01:06:55;;;;;;;21.90;16.73;;;8.00;86.40;;;;;;5009200;28;20026;-69
2021/10/18 01:09:21;;;;;;;22.27;17.33;;;8.00;86.50;;;;;;5003492;28;20052;-69
2021/10/18 01:11:47;;;;;;;23.65;18.00;;;8.10;86.60;;;;;;5015116;28;20030;-69
2021/10/18 01:14:12;;;;;;;18.80;16.55;;;8.10;86.70;;;;;;5013542;28;20057;-71
2021/10/18 01:16:38;;;;;;;19.92;16.08;;;8.10;86.60;;;;;;5009089;28;20662;-69
2021/10/18 01:19:16;;;;;;;22.55;16.52;;;8.10;86.30;;;;;;5008121;28;20057;-69
2021/10/18 01:21:43;;;;;;;21.35;16.77;;;8.10;86.10;;;;;;5010105;28;20061;-69
2021/10/18 01:24:10;;;;;;;18.98;15.52;;;8.00;86.00;;;;;;5005090;28;20394;-71
2021/10/18 01:26:36;;;;;;;20.33;15.98;;;8.00;86.00;;;;;;5009554;28;20383;-70
2021/10/18 01:29:02;;;;;;;19.75;16.65;;;8.00;85.80;;;;;;5012422;28;20121;-69
2021/10/18 01:31:28;;;;;;;21.50;16.13;;;7.90;85.80;;;;;;5008183;28;20041;-70
2021/10/18 01:33:54;;;;;;;20.65;16.05;;;7.80;85.90;;;;;;5007589;28;20022;-68
2021/10/18 01:36:19;;;;;;;21.42;16.95;;;7.80;86.00;;;;;;5005325;28;20358;-72
2021/10/18 01:38:46;;;;;;;21.92;18.00;;;7.80;86.10;;;;;;5005917;28;20041;-69
2021/10/18 01:41:12;;;;;;;23.08;17.05;;;7.70;86.20;;;;;;5004156;28;20042;-69
2021/10/18 01:43:37;;;;;;;21.27;17.25;;;7.60;86.20;;;;;;5007807;28;20033;-69
2021/10/18 01:46:04;;;;;;;22.92;17.42;;;7.60;86.50;;;;;;5007121;28;20026;-69
2021/10/18 01:48:30;;;;;;;20.27;17.45;;;7.50;86.50;;;;;;5002663;28;20045;-69
2021/10/18 01:50:55;;;;;;;22.27;17.55;;;7.50;86.70;;;;;;5012055;28;20116;-70
2021/10/18 01:53:21;;;;;;;23.70;18.65;;;7.50;86.90;;;;;;5003887;28;20075;-69
2021/10/18 01:55:47;;;;;;;20.27;17.30;;;7.40;86.90;;;;;;5008111;28;20597;-69
2021/10/18 01:58:13;;;;;;;21.52;18.10;;;7.40;87.00;;;;;;5011301;28;20026;-69
2021/10/18 02:00:40;;;;;;;23.67;17.75;;;7.40;86.90;;;;;;5007189;28;20381;-69
2021/10/18 02:03:06;;;;;;;21.75;18.92;;;7.50;86.80;;;;;;5009903;28;20125;-69
2021/10/18 02:05:32;;;;;;;24.42;18.77;;;7.50;86.80;;;;;;5008771;28;20137;-69
2021/10/18 02:07:57;;;;;;;22.08;16.30;;;7.50;86.80;;;;;;5008445;28;20429;-71
2021/10/18 02:10:23;;;;;;;22.00;17.38;;;7.50;86.80;;;;;;5008487;28;20037;-71
2021/10/18 02:12:51;;;;;;;22.42;18.02;;;7.50;86.80;;;;;;5006713;28;20721;-69
2021/10/18 02:15:16;;;;;;;20.38;17.10;;;7.40;86.80;;;;;;5008308;28;20052;-69
2021/10/18 02:17:42;;;;;;;20.58;17.08;;;7.40;86.80;;;;;;5009306;28;20058;-69
2021/10/18 02:20:10;;;;;;;20.42;17.40;;;7.40;86.80;;;;;;5007395;28;20050;-69
2021/10/18 02:22:36;;;;;;;24.08;17.95;;;7.40;86.60;;;;;;5005705;28;20029;-70
2021/10/18 02:25:03;;;;;;;22.75;17.02;;;7.30;86.60;;;;;;5010296;28;20113;-69
2021/10/18 02:27:29;;;;;;;24.35;18.70;;;7.20;86.70;;;;;;5008556;28;20033;-69
2021/10/18 02:29:54;;;;;;;21.55;17.20;;;7.10;86.60;;;;;;5007597;28;20464;-71
2021/10/18 02:32:20;;;;;;;21.58;17.27;;;7.10;86.70;;;;;;5002968;28;20061;-69
2021/10/18 02:34:46;;;;;;;22.63;18.55;;;7.10;86.70;;;;;;5009741;28;20665;-69
2021/10/18 02:37:12;;;;;;;19.38;17.08;;;7.10;86.70;;;;;;5005995;28;20057;-69
2021/10/18 02:39:37;;;;;;;21.80;16.77;;;7.00;86.80;;;;;;5007607;28;20414;-72
2021/10/18 02:42:03;;;;;;;19.48;16.48;;;7.00;86.70;;;;;;5003511;28;20034;-70
2021/10/18 02:44:29;;;;;;;21.02;17.38;;;7.00;86.60;;;;;;5006700;28;20125;-71
2021/10/18 02:46:55;;;;;;;19.90;16.33;;;7.00;86.50;;;;;;5008507;28;20129;-69
2021/10/18 02:49:21;;;;;;;25.95;18.08;;;7.00;86.40;;;;;;5005527;28;20042;-70
2021/10/18 02:51:48;;;;;;;21.83;16.60;;;6.90;86.30;;;;;;5009187;28;20054;-68
2021/10/18 02:54:14;;;;;;;21.35;16.50;;;6.90;86.30;;;;;;5005799;28;20028;-69
2021/10/18 02:56:40;;;;;;;21.17;16.73;;;6.90;86.10;;;;;;5005685;28;20038;-69
2021/10/18 02:59:06;;;;;;;22.23;17.85;;;6.90;86.20;;;;;;5010148;28;20040;-69
2021/10/18 03:01:31;;;;;;;20.08;16.55;;;6.80;86.10;;;;;;5007340;28;20436;-71
2021/10/18 03:03:57;;;;;;;19.17;16.25;;;6.80;86.20;;;;;;5008265;28;20454;-70
2021/10/18 03:06:23;;;;;;;21.40;16.73;;;6.80;86.20;;;;;;5008763;28;20373;-69
2021/10/18 03:08:48;;;;;;;22.38;17.33;;;6.80;86.20;;;;;;5007354;28;20026;-69
2021/10/18 03:11:15;;;;;;;23.92;17.90;;;6.80;86.30;;;;;;5006244;28;20041;-71
2021/10/18 03:13:40;;;;;;;21.90;16.85;;;6.90;86.40;;;;;;5007840;28;20088;-73
2021/10/18 03:16:06;;;;;;;21.15;17.42;;;6.90;86.40;;;;;;5006555;28;20029;-70
2021/10/18 03:18:32;;;;;;;20.50;16.73;;;6.80;86.40;;;;;;5006163;28;20373;-70
2021/10/18 03:20:57;;;;;;;22.92;18.02;;;6.80;86.40;;;;;;5011150;28;20026;-69
2021/10/18 03:23:23;;;;;;;20.70;16.42;;;6.80;86.40;;;;;;5004997;28;20034;-71
2021/10/18 03:25:49;;;;;;;23.52;17.63;;;6.70;86.40;;;;;;5006524;28;20022;-69
2021/10/18 03:28:14;;;;;;;22.45;18.38;;;6.70;86.40;;;;;;5012739;28;20360;-73
2021/10/18 03:30:40;;;;;;;25.38;18.58;;;6.70;86.60;;;;;;5003620;28;20034;-69
2021/10/18 03:33:06;;;;;;;23.45;19.02;;;6.70;86.70;;;;;;5009450;28;20034;-69
2021/10/18 03:35:32;;;;;;;23.85;18.92;;;6.70;86.80;;;;;;5007324;28;20076;-69
2021/10/18 03:37:57;;;;;;;25.92;19.35;;;6.70;86.90;;;;;;5006284;28;20393;-69
2021/10/18 03:40:23;;;;;;;26.05;19.92;;;6.80;87.00;;;;;;5004747;28;20079;-72
2021/10/18 03:42:49;;;;;;;26.02;19.40;;;6.80;87.10;;;;;;5006229;28;20038;-69
2021/10/18 03:45:15;;;;;;;27.23;22.13;;;6.90;87.20;;;;;;5006484;28;20030;-69
2021/10/18 03:47:41;;;;;;;30.00;22.45;;;6.90;87.50;;;;;;5004008;28;20452;-70
2021/10/18 03:50:07;;;;;;;29.98;22.50;;;7.00;87.60;;;;;;5006206;28;20149;-69
2021/10/18 03:52:33;;;;;;;29.05;21.45;;;7.10;87.70;;;;;;5004298;28;20477;-69
2021/10/18 03:54:59;;;;;;;29.85;22.63;;;7.10;87.80;;;;;;5008633;28;20037;-69
2021/10/18 03:57:25;;;;;;;30.00;22.65;;;7.10;87.90;;;;;;5006792;28;20034;-69
2021/10/18 03:59:50;;;;;;;30.48;21.63;;;7.10;87.80;;;;;;5005974;28;20564;-70
2021/10/18 04:02:16;;;;;;;26.52;20.98;;;7.20;87.80;;;;;;5004777;28;20072;-69
2021/10/18 04:04:42;;;;;;;27.23;19.65;;;7.10;87.80;;;;;;5006279;28;20349;-70
2021/10/18 04:07:08;;;;;;;31.60;22.77;;;7.10;87.80;;;;;;5007039;28;20029;-70
2021/10/18 04:09:34;;;;;;;29.92;22.38;;;7.10;87.90;;;;;;5004962;28;20045;-70
2021/10/18 04:12:00;;;;;;;28.35;21.67;;;7.20;88.00;;;;;;5007600;28;20761;-70
2021/10/18 04:14:26;;;;;;;28.27;21.55;;;7.20;88.00;;;;;;5009742;28;20030;-70
2021/10/18 04:16:52;;;;;;;33.97;23.05;;;7.20;88.00;;;;;;5005025;28;20036;-70
2021/10/18 04:19:17;;;;;;;30.75;21.92;;;7.20;88.00;;;;;;5010609;28;20119;-69
2021/10/18 04:21:43;;;;;;;30.88;22.15;;;7.30;88.00;;;;;;5009101;28;20816;-69
2021/10/18 04:24:09;;;;;;;29.05;21.27;;;7.40;88.20;;;;;;5007795;28;20103;-73
2021/10/18 04:26:35;;;;;;;27.30;19.80;;;7.40;88.10;;;;;;5003307;28;20041;-70
2021/10/18 04:29:00;;;;;;;27.42;21.15;;;7.40;88.00;;;;;;5008126;28;20244;-72
2021/10/18 04:31:28;;;;;;;27.63;20.27;;;7.40;88.00;;;;;;5001543;28;20108;-70
2021/10/18 04:33:56;;;;;;;29.42;23.40;;;7.40;88.00;;;;;;5004710;28;20022;-70
2021/10/18 04:36:23;;;;;;;28.08;20.48;;;7.40;88.00;;;;;;5009359;28;20041;-69
2021/10/18 04:38:48;;;;;;;27.90;20.80;;;7.40;87.90;;;;;;5020069;28;20042;-72
2021/10/18 04:41:14;;;;;;;29.63;20.80;;;7.50;87.90;;;;;;5006098;28;20042;-70
2021/10/18 04:43:40;;;;;;;28.13;19.52;;;7.40;87.90;;;;;;5010947;28;20044;-69
2021/10/18 04:46:06;;;;;;;26.15;19.75;;;7.50;87.90;;;;;;5006892;28;20037;-71
2021/10/18 04:48:31;;;;;;;26.67;19.42;;;7.50;87.90;;;;;;5008079;28;20065;-70
2021/10/18 04:50:57;;;;;;;24.80;19.23;;;7.50;87.80;;;;;;5008005;28;20041;-74
2021/10/18 04:53:22;;;;;;;26.42;20.52;;;7.50;87.70;;;;;;5008211;28;20045;-70
2021/10/18 04:55:48;;;;;;;31.67;20.10;;;7.50;87.70;;;;;;5010044;28;20033;-70
2021/10/18 04:58:14;;;;;;;28.70;20.65;;;7.60;87.60;;;;;;5003263;28;20046;-71
2021/10/18 05:00:44;;;;;;;26.25;20.40;;;7.60;87.50;;;;;;5004444;28;20359;-70
2021/10/18 05:03:10;;;;;;;28.17;20.17;;;7.60;87.40;;;;;;5010922;28;20041;-69
2021/10/18 05:05:35;;;;;;;25.77;19.90;;;7.50;87.40;;;;;;5005975;28;20465;-70
2021/10/18 05:08:06;;;;;;;26.70;19.33;;;7.60;87.30;;;;;;5005003;28;20037;-73
2021/10/18 05:10:34;;;;;;;25.45;18.67;;;7.60;87.30;;;;;;5006832;28;20034;-70
2021/10/18 05:13:00;;;;;;;24.90;19.02;;;7.60;87.20;;;;;;5005205;28;20038;-70
2021/10/18 05:15:26;;;;;;;25.77;19.42;;;7.60;87.20;;;;;;5001624;28;20092;-73
2021/10/18 05:17:52;;;;;;;24.67;19.23;;;7.60;87.20;;;;;;5008535;28;20080;-71
2021/10/18 05:20:18;;;;;;;26.23;19.98;;;7.60;87.30;;;;;;5004206;28;20026;-70
2021/10/18 05:22:43;;;;;;;26.05;19.42;;;7.60;87.30;;;;;;5001808;28;20062;-69
2021/10/18 05:25:09;;;;;;;26.27;18.73;;;7.60;87.30;;;;;;5006457;28;20030;-73
2021/10/18 05:27:36;;;;;;;24.85;19.15;;;7.60;87.20;;;;;;5008452;28;20104;-70
2021/10/18 05:30:04;;;;;;;26.50;19.65;;;7.60;87.10;;;;;;5012169;28;20072;-72
2021/10/18 05:32:30;;;;;;;25.35;19.45;;;7.60;87.10;;;;;;5006567;28;20061;-69
2021/10/18 05:34:55;;;;;;;31.23;21.23;;;7.60;87.00;;;;;;5007588;28;20072;-69
2021/10/18 05:37:21;;;;;;;29.17;20.55;;;7.70;86.90;;;;;;5000485;28;20108;-70
2021/10/18 05:39:47;;;;;;;28.33;19.58;;;7.70;87.00;;;;;;5005674;28;20523;-70
2021/10/18 05:42:12;;;;;;;25.80;19.02;;;7.70;86.90;;;;;;5007313;28;20125;-69
2021/10/18 05:44:38;;;;;;;25.33;18.90;;;7.80;86.90;;;;;;5009350;28;20057;-69
2021/10/18 05:47:04;;;;;;;26.13;18.90;;;7.70;86.90;;;;;;5008448;28;20022;-70
2021/10/18 05:49:30;;;;;;;24.70;18.60;;;7.70;86.90;;;;;;5007330;28;20388;-68
2021/10/18 05:51:56;;;;;;;30.13;20.02;;;7.80;86.90;;;;;;5003537;28;20053;-69
2021/10/18 05:54:22;;;;;;;25.85;19.17;;;7.80;87.00;;;;;;5009038;28;20085;-72
2021/10/18 05:56:49;;;;;;;27.70;19.17;;;7.80;86.90;;;;;;5007201;28;20044;-69
2021/10/18 05:59:16;;;;;;;25.15;19.23;;;7.80;87.00;;;;;;5009225;28;20061;-69
2021/10/18 06:01:41;;;;;;;27.15;19.20;;;7.80;86.90;;;;;;5004792;28;20562;-69
2021/10/18 06:04:07;;;;;;;26.17;19.75;;;7.90;86.70;;;;;;5009366;28;20117;-69
2021/10/18 06:06:35;;;;;;;28.60;19.60;;;7.90;86.70;;;;;;5008594;28;20029;-69
2021/10/18 06:09:01;;;;;;;27.05;19.23;;;8.00;86.60;;;;;;5005594;28;20470;-69
2021/10/18 06:11:27;;;;;;;27.77;18.92;;;8.00;86.50;;;;;;5008575;28;20456;-68
2021/10/18 06:13:53;;;;;;;28.08;19.45;;;8.00;86.40;;;;;;5003049;28;20465;-68
2021/10/18 06:16:18;;;;;;;23.50;18.30;;;8.00;86.30;;;;;;5007695;28;20026;-70
2021/10/18 06:18:44;;;;;;;27.73;19.85;;;8.00;86.30;;;;;;5006594;28;20060;-68
2021/10/18 06:21:10;;;;;;;27.17;18.98;;;8.00;86.30;;;;;;5006592;28;20044;-71
2021/10/18 06:23:36;;;;;;;31.85;21.55;;;8.00;86.40;;;;;;5006434;28;20065;-69
2021/10/18 06:26:01;;;;;;;28.30;18.83;;;8.10;86.30;;;;;;5004332;28;20034;-69
2021/10/18 06:28:27;;;;;;;29.55;19.58;;;8.10;86.20;;;;;;5006263;28;20125;-69
2021/10/18 06:30:53;;;;;;;28.45;19.52;;;8.10;86.20;;;;;;5006709;28;20058;-68
2021/10/18 06:33:24;;;;;;;28.17;20.13;;;8.10;86.20;;;;;;5005540;28;20520;-69
2021/10/18 06:35:50;;;;;;;30.48;20.08;;;8.10;86.10;;;;;;5006162;28;20042;-69
2021/10/18 06:38:19;;;;;;;30.83;19.50;;;8.10;86.10;;;;;;5005679;28;20046;-68
2021/10/18 06:40:47;;;;;;;29.85;19.45;;;8.10;86.00;;;;;;5002664;28;20121;-68
2021/10/18 06:43:13;;;;;;;27.88;19.45;;;8.20;85.90;;;;;;5007716;28;20021;-72
2021/10/18 06:45:39;;;;;;;29.10;19.15;;;8.20;85.90;;;;;;5009021;28;20049;-69
2021/10/18 06:48:09;;;;;;;28.45;20.52;;;8.20;85.80;;;;;;5008380;28;20030;-69
2021/10/18 06:50:36;;;;;;;28.73;19.20;;;8.30;85.80;;;;;;5007456;28;20049;-70
2021/10/18 06:53:02;;;;;;;27.48;19.45;;;8.30;85.70;;;;;;5007030;28;20054;-69
2021/10/18 06:55:28;;;;;;;28.33;19.98;;;8.30;85.60;;;;;;5004231;28;20387;-73
2021/10/18 06:57:56;;;;;;;29.40;20.33;;;8.40;85.60;;;;;;5009544;28;20048;-69
2021/10/18 07:00:22;;;;;;;27.58;19.35;;;8.40;85.50;;;;;;5004690;28;20041;-69
2021/10/18 07:02:48;;;;;;;27.30;20.05;;;8.50;85.40;;;;;;5004484;28;20452;-71
2021/10/18 07:05:14;;;;;;;27.05;18.75;;;8.50;85.20;;;;;;5006727;28;20117;-69
2021/10/18 07:07:40;;;;;;;26.63;19.85;;;8.60;84.80;;;;;;5005731;28;20078;-69
2021/10/18 07:10:07;;;;;;;26.88;19.25;;;8.60;84.70;;;;;;5004239;28;20041;-69
2021/10/18 07:12:35;;;;;;;28.35;19.58;;;8.70;84.60;;;;;;5007180;28;20057;-69
2021/10/18 07:15:01;;;;;;;28.45;19.35;;;8.70;84.20;;;;;;5007978;28;20022;-68
2021/10/18 07:17:28;;;;;;;28.20;19.70;;;8.80;84.00;;;;;;5006670;28;20457;-70
2021/10/18 07:19:55;;;;;;;29.80;20.25;;;8.80;83.90;;;;;;5001923;28;20172;-68
2021/10/18 07:22:25;;;;;;;27.33;20.20;;;8.90;83.80;;;;;;5005862;28;20367;-69
2021/10/18 07:24:52;;;;;;;28.40;20.25;;;9.00;83.60;;;;;;5007590;28;20045;-70
2021/10/18 07:27:19;;;;;;;29.40;19.85;;;9.10;83.50;;;;;;5007935;28;20028;-69
2021/10/18 07:29:44;;;;;;;26.80;18.27;;;9.10;83.20;;;;;;5007058;28;20440;-69
2021/10/18 07:32:11;;;;;;;29.95;19.60;;;9.20;82.90;;;;;;5003224;28;20034;-69
2021/10/18 07:34:36;;;;;;;27.63;19.50;;;9.30;82.90;;;;;;5002941;28;20084;-68
2021/10/18 07:37:03;;;;;;;29.98;19.23;;;9.30;82.60;;;;;;5002780;28;20030;-70
2021/10/18 07:39:29;;;;;;;29.58;19.45;;;9.40;82.20;;;;;;5005639;28;20530;-69
2021/10/18 07:41:57;;;;;;;26.38;20.10;;;9.40;82.40;;;;;;5005164;28;20038;-69
2021/10/18 07:44:25;;;;;;;28.30;18.75;;;9.50;81.90;;;;;;5002925;28;20453;-69
2021/10/18 07:46:55;;;;;;;26.45;19.08;;;9.50;82.00;;;;;;5007152;28;20105;-69
2021/10/18 07:49:21;;;;;;;28.27;19.58;;;9.50;81.90;;;;;;5013730;28;20913;-70
2021/10/18 07:51:47;;;;;;;28.95;18.08;;;9.60;82.10;;;;;;5017859;28;20437;-73
2021/10/18 07:54:12;;;;;;;29.13;17.63;;;9.70;81.90;;;;;;5009490;28;20468;-69
2021/10/18 07:56:38;;;;;;;28.77;18.00;;;9.70;82.00;;;;;;5013347;28;20358;-71
2021/10/18 07:59:04;;;;;;;27.92;17.38;;;9.70;81.60;;;;;;5016227;28;20022;-68
2021/10/18 08:01:29;;;;;;;26.33;18.23;;;9.90;81.50;;;;;;5011655;28;20050;-68
2021/10/18 08:03:55;;;;;;;24.23;17.40;;;10.00;81.60;;;;;;5012381;28;20469;-69
2021/10/18 08:06:21;;;;;;;25.52;17.52;;;10.10;81.30;;;;;;5006813;28;20049;-69
2021/10/18 08:08:52;;;;;;;27.08;18.85;;;10.10;80.60;;;;;;5003885;28;20030;-69
2021/10/18 08:11:18;;;;;;;25.73;17.13;;;10.30;80.80;;;;;;5006459;28;20045;-69
2021/10/18 08:13:44;;;;;;;26.92;18.20;;;10.40;80.50;;;;;;5006912;28;20461;-69
2021/10/18 08:16:10;;;;;;;27.92;17.60;;;10.60;79.80;;;;;;5007178;28;20121;-69
2021/10/18 08:18:37;;;;;;;24.65;17.55;;;10.80;79.50;;;;;;5010331;28;20033;-72
2021/10/18 08:21:04;;;;;;;25.33;17.45;;;10.90;79.10;;;;;;5006331;28;20065;-70
2021/10/18 08:23:32;;;;;;;26.45;17.58;;;11.00;78.60;;;;;;5005871;28;20026;-73
2021/10/18 08:25:58;;;;;;;25.25;17.83;;;11.10;78.40;;;;;;5009483;28;20033;-69
2021/10/18 08:28:24;;;;;;;24.02;17.05;;;11.20;77.60;;;;;;5007896;28;20030;-70
2021/10/18 08:30:49;;;;;;;24.77;16.63;;;11.40;77.00;;;;;;5010661;28;20483;-69
2021/10/18 08:33:15;;;;;;;23.75;16.55;;;11.60;77.00;;;;;;5012694;28;20203;-69
2021/10/18 08:35:41;;;;;;;23.40;16.15;;;11.70;76.50;;;;;;5008279;28;20111;-68
2021/10/18 08:45:54;;;;;;;19.30;14.48;;;12.10;74.80;;;;;;5006682;28;20046;-69
2021/10/18 08:48:20;;;;;;;20.63;15.13;;;12.10;74.40;;;;;;5003701;28;20470;-69
2021/10/18 08:50:48;;;;;;;20.38;15.23;;;12.20;74.70;;;;;;5005996;28;20144;-74
2021/10/18 08:53:14;;;;;;;20.40;14.50;;;12.20;74.50;;;;;;5002793;28;20083;-70
2021/10/18 08:55:40;;;;;;;18.92;14.20;;;12.30;74.60;;;;;;5005815;28;20180;-73
2021/10/18 08:58:07;;;;;;;20.40;14.25;;;12.40;74.60;;;;;;5007566;28;20026;-72
2021/10/18 09:00:37;;;;;;;22.15;14.00;;;12.60;74.60;;;;;;5010559;28;20042;-69
2021/10/18 09:03:17;;;;;;;19.42;13.18;;;12.60;74.40;;;;;;5007620;28;20113;-70
2021/10/18 09:05:43;;;;;;;18.48;13.55;;;12.80;73.50;;;;;;5006407;28;20108;-74
2021/10/18 09:08:08;;;;;;;17.40;13.32;;;12.90;73.10;;;;;;5006027;28;20109;-69
2021/10/18 09:10:34;;;;;;;19.15;13.20;;;12.90;72.80;;;;;;5004207;28;20034;-68
2021/10/18 09:13:12;;;;;;;21.60;14.13;;;13.00;72.70;;;;;;5005850;28;20512;-69
2021/10/18 09:15:38;;;;;;;19.33;14.63;;;13.10;72.40;;;;;;5000726;28;20025;-73
2021/10/18 09:18:03;;;;;;;21.67;13.75;;;13.10;72.30;;;;;;5002137;28;20105;-69
2021/10/18 09:20:31;;;;;;;19.15;13.73;;;13.10;72.70;;;;;;5002017;28;20035;-69
2021/10/18 09:23:31;;;;;;;18.85;13.18;;;13.10;73.00;;;;;;5004638;28;20040;-70
2021/10/18 09:26:07;;;;;;;19.17;13.52;;;13.20;72.50;;;;;;5006496;28;20026;-69
2021/10/18 09:28:34;;;;;;;22.45;13.88;;;13.30;71.50;;;;;;5008548;28;20033;-68
2021/10/18 09:31:00;;;;;;;19.60;12.55;;;13.50;71.50;;;;;;5009683;28;20104;-69
2021/10/18 09:33:41;;;;;;;20.65;13.82;;;13.40;71.00;;;;;;5007302;28;20036;-69
2021/10/18 09:36:12;;;;;;;19.75;14.40;;;13.60;71.40;;;;;;5001793;28;20029;-70
2021/10/18 09:38:38;;;;;;;20.48;14.00;;;13.70;71.30;;;;;;5001835;28;20107;-69
2021/10/18 09:41:04;;;;;;;22.25;14.43;;;13.60;70.80;;;;;;4998896;28;20571;-68
2021/10/18 09:43:36;;;;;;;19.92;14.82;;;13.60;70.40;;;;;;5005241;28;20444;-71
2021/10/18 09:46:14;;;;;;;17.95;13.90;;;13.60;71.50;;;;;;5001479;28;20385;-69
2021/10/18 10:53:59;;;;;;;18.35;13.95;;;14.50;73.20;;;;;;5003706;28;20046;-71
2021/10/18 10:56:32;;;;;;;19.65;12.93;;;14.60;72.90;;;;;;5005366;28;20030;-69
2021/10/18 10:59:18;;;;;;;23.13;14.80;;;14.50;72.80;;;;;;5000484;28;20136;-73
2021/10/18 11:02:09;;;;;;;20.45;14.25;;;14.50;72.70;;;;;;5005330;28;20033;-72
2021/10/18 11:04:35;;;;;;;17.85;13.73;;;14.40;73.00;;;;;;5007506;28;20026;-71
2021/10/18 11:07:12;;;;;;;19.45;14.05;;;14.40;73.10;;;;;;5002072;28;20041;-72
2021/10/18 11:09:56;;;;;;;20.75;14.50;;;14.50;73.40;;;;;;5001111;28;20034;-70
2021/10/18 11:12:41;;;;;;;20.50;14.55;;;14.60;73.60;;;;;;5004279;28;20049;-69
2021/10/18 11:15:13;;;;;;;18.05;14.10;;;14.60;72.90;;;;;;5003977;28;20615;-71
2021/10/18 11:17:51;;;;;;;19.95;14.23;;;14.60;73.00;;;;;;5007570;28;20032;-70
2021/10/18 11:20:24;;;;;;;21.10;13.43;;;14.60;73.50;;;;;;5002690;28;20046;-73
2021/10/18 11:22:58;;;;;;;20.10;15.00;;;14.80;73.30;;;;;;4998714;28;20038;-70
2021/10/18 11:25:38;;;;;;;22.23;14.35;;;14.80;72.70;;;;;;5009455;28;20041;-69
2021/10/18 11:28:07;;;;;;;19.95;14.32;;;14.80;73.20;;;;;;5007036;28;20592;-73
2021/10/18 11:30:35;;;;;;;19.67;14.23;;;14.90;73.40;;;;;;5008163;28;20041;-73
2021/10/18 11:33:03;;;;;;;20.75;14.15;;;15.00;73.80;;;;;;5004227;28;20088;-71
2021/10/18 11:35:34;;;;;;;20.15;14.57;;;15.10;73.10;;;;;;5007968;28;20039;-70
2021/10/18 11:38:07;;;;;;;20.83;14.45;;;15.10;72.80;;;;;;5007861;28;20048;-70
2021/10/18 11:40:34;;;;;;;21.42;13.82;;;15.20;73.10;;;;;;5006242;28;20033;-68
2021/10/18 11:43:10;;;;;;;18.15;14.00;;;15.30;72.80;;;;;;5009256;28;20052;-69
2021/10/18 11:45:39;;;;;;;17.77;13.85;;;15.40;72.40;;;;;;5004430;28;20022;-70
2021/10/18 11:48:13;;;;;;;20.63;13.73;;;15.30;72.60;;;;;;5006036;28;20030;-69
2021/10/18 11:50:44;;;;;;;18.88;12.38;;;15.40;72.30;;;;;;5006220;28;20436;-69
2021/10/18 11:53:19;;;;;;;19.52;12.85;;;15.50;72.60;;;;;;5005512;28;20050;-70
2021/10/18 11:55:49;;;;;;;18.95;12.57;;;15.60;71.80;;;;;;5018977;28;20536;-68
2021/10/18 11:58:23;;;;;;;19.70;12.57;;;15.80;71.80;;;;;;5001013;28;20051;-68
2021/10/18 12:00:57;;;;;;;19.63;13.38;;;15.90;71.10;;;;;;5005300;28;20037;-69
2021/10/18 12:03:23;;;;;;;17.48;13.60;;;16.10;71.60;;;;;;5004193;28;20518;-70
2021/10/18 12:05:51;;;;;;;18.60;12.23;;;16.20;70.70;;;;;;5007924;28;20026;-68
2021/10/18 12:08:26;;;;;;;18.80;12.52;;;16.20;70.20;;;;;;5007198;28;20144;-70
2021/10/18 12:10:52;;;;;;;19.85;13.30;;;16.30;70.50;;;;;;5006898;28;20030;-69
2021/10/18 12:13:26;;;;;;;15.32;12.13;;;16.20;70.10;;;;;;5006028;28;20069;-70
2021/10/18 12:16:03;;;;;;;18.38;12.30;;;16.20;70.80;;;;;;5006293;28;20368;-68
2021/10/18 12:18:42;;;;;;;15.90;11.85;;;16.20;70.20;;;;;;5004222;28;20037;-69
2021/10/18 12:21:13;;;;;;;18.50;12.20;;;16.10;70.50;;;;;;5019565;28;20036;-69
2021/10/18 12:23:47;;;;;;;14.98;11.02;;;16.30;70.70;;;;;;5005258;28;20033;-70
2021/10/18 12:26:22;;;;;;;17.83;11.18;;;16.40;70.30;;;;;;5008365;28;20042;-73
2021/10/18 12:28:50;;;;;;;17.83;11.88;;;16.40;70.50;;;;;;5003322;28;20038;-69
2021/10/18 12:31:38;;;;;;;15.85;11.38;;;16.50;70.40;;;;;;5008153;28;20038;-69
2021/10/18 12:34:08;;;;;;;17.13;12.35;;;16.40;69.70;;;;;;5008534;28;20109;-69
2021/10/18 12:36:55;;;;;;;15.05;11.30;;;16.50;70.00;;;;;;5002547;28;20113;-68
2021/10/18 12:40:08;;;;;;;15.60;11.07;;;16.50;69.80;;;;;;5006563;28;20124;-69
2021/10/18 12:42:34;;;;;;;17.27;11.15;;;16.60;70.40;;;;;;4992576;28;20096;-70
2021/10/18 12:45:08;;;;;;;14.73;11.88;;;16.60;70.50;;;;;;5002634;28;20385;-70
2021/10/18 12:47:37;;;;;;;15.02;11.10;;;16.80;70.70;;;;;;5002755;28;20034;-68
2021/10/18 12:50:15;;;;;;;15.73;11.05;;;16.90;70.00;;;;;;5007072;28;20052;-69
2021/10/18 12:52:50;;;;;;;16.60;11.13;;;16.80;69.50;;;;;;5006521;28;20141;-70
2021/10/18 12:55:35;;;;;;;18.50;11.75;;;16.70;69.80;;;;;;5003240;28;20026;-71
2021/10/18 12:58:01;;;;;;;16.50;10.43;;;16.70;69.90;;;;;;5007202;28;20021;-69
2021/10/18 13:00:39;;;;;;;16.48;10.38;;;16.70;70.40;;;;;;5009585;28;20044;-70
2021/10/18 13:03:08;;;;;;;15.75;10.95;;;16.80;70.50;;;;;;5009064;28;20037;-71
2021/10/18 13:05:41;;;;;;;14.57;10.15;;;16.90;70.20;;;;;;5012245;28;20046;-73
2021/10/18 13:08:08;;;;;;;17.40;10.13;;;16.90;70.20;;;;;;5001974;28;20038;-70
2021/10/18 13:10:36;;;;;;;15.70;10.25;;;16.90;70.10;;;;;;5010631;28;20116;-76
2021/10/18 13:13:10;;;;;;;15.55;10.60;;;16.90;70.00;;;;;;5003179;28;20100;-70
2021/10/18 13:15:36;;;;;;;16.52;10.13;;;16.90;70.50;;;;;;5002760;28;20117;-71
2021/10/18 13:18:03;;;;;;;16.02;10.70;;;17.00;70.60;;;;;;5004350;28;20052;-75
2021/10/18 13:20:28;;;;;;;15.13;10.52;;;17.00;70.50;;;;;;5009473;28;20056;-71
2021/10/18 13:22:57;;;;;;;13.88;10.27;;;17.10;70.10;;;;;;5006889;28;20123;-73
2021/10/18 13:25:25;;;;;;;13.27;9.32;;;17.00;69.10;;;;;;4999958;28;20049;-68
2021/10/18 13:27:52;;;;;;;13.30;9.05;;;17.00;69.20;;;;;;5012298;28;20021;-69
2021/10/18 13:30:18;;;;;;;16.15;9.88;;;17.00;69.70;;;;;;5002546;28;20109;-73
2021/10/18 13:32:45;;;;;;;17.40;10.18;;;17.00;69.00;;;;;;5006539;28;20122;-70
2021/10/18 13:35:11;;;;;;;14.27;9.43;;;17.00;69.10;;;;;;5005107;28;20531;-69
2021/10/18 13:37:37;;;;;;;13.98;9.60;;;17.10;69.30;;;;;;5011380;28;20042;-69
2021/10/18 13:40:08;;;;;;;14.25;9.73;;;17.10;69.30;;;;;;5009081;28;20469;-68
2021/10/18 13:42:34;;;;;;;14.05;9.05;;;17.10;69.40;;;;;;5005626;28;20034;-73
2021/10/18 13:45:00;;;;;;;12.63;9.75;;;17.10;68.90;;;;;;5002241;28;20022;-72
2021/10/18 13:47:25;;;;;;;12.85;9.38;;;17.10;69.30;;;;;;5005423;28;20037;-69
2021/10/18 13:49:51;;;;;;;14.10;10.02;;;17.20;69.30;;;;;;5006889;28;20042;-69